sensor_id;sensor_type;location;lat;lon;timestamp;P1;durP1;ratioP1;P2;durP2;ratioP2
78916;SDS011;68315;48.608;11.436;2023-10-19T00:01:06;13.68;;;10.75;;
78916;SDS011;68315;48.608;11.436;2023-10-19T00:03:35;15.23;;;11.02;;
78916;SDS011;68315;48.608;11.436;2023-10-19T00:06:00;13.77;;;10.27;;
78916;SDS011;68315;48.608;11.436;2023-10-19T00:08:26;13.10;;;10.25;;
78916;SDS011;68315;48.608;11.436;2023-10-19T00:11:01;14.05;;;11.25;;
78916;SDS011;68315;48.608;11.436;2023-10-19T00:13:29;15.27;;;12.30;;
78916;SDS011;68315;48.608;11.436;2023-10-19T00:15:55;16.38;;;12.63;;
78916;SDS011;68315;48.608;11.436;2023-10-19T00:18:23;15.88;;;12.40;;
78916;SDS011;68315;48.608;11.436;2023-10-19T00:20:52;16.30;;;11.88;;
78916;SDS011;68315;48.608;11.436;2023-10-19T00:23:24;15.32;;;11.38;;
78916;SDS011;68315;48.608;11.436;2023-10-19T00:25:54;15.57;;;12.38;;
78916;SDS011;68315;48.608;11.436;2023-10-19T00:28:23;17.25;;;12.35;;
78916;SDS011;68315;48.608;11.436;2023-10-19T00:30:51;15.00;;;11.65;;
78916;SDS011;68315;48.608;11.436;2023-10-19T00:33:18;17.88;;;12.48;;
78916;SDS011;68315;48.608;11.436;2023-10-19T00:35:45;15.80;;;12.02;;
78916;SDS011;68315;48.608;11.436;2023-10-19T00:38:30;15.55;;;12.45;;
78916;SDS011;68315;48.608;11.436;2023-10-19T00:41:04;18.75;;;14.52;;
78916;SDS011;68315;48.608;11.436;2023-10-19T00:43:37;16.33;;;12.40;;
78916;SDS011;68315;48.608;11.436;2023-10-19T00:46:11;20.73;;;15.60;;
78916;SDS011;68315;48.608;11.436;2023-10-19T00:51:16;20.65;;;15.35;;
78916;SDS011;68315;48.608;11.436;2023-10-19T00:53:57;21.63;;;15.70;;
78916;SDS011;68315;48.608;11.436;2023-10-19T00:56:30;19.50;;;14.23;;
78916;SDS011;68315;48.608;11.436;2023-10-19T00:58:58;16.92;;;13.50;;
78916;SDS011;68315;48.608;11.436;2023-10-19T01:01:54;17.50;;;13.98;;
78916;SDS011;68315;48.608;11.436;2023-10-19T01:04:21;17.90;;;13.23;;
78916;SDS011;68315;48.608;11.436;2023-10-19T01:06:57;15.02;;;12.02;;
78916;SDS011;68315;48.608;11.436;2023-10-19T01:09:41;17.52;;;14.25;;
78916;SDS011;68315;48.608;11.436;2023-10-19T01:12:09;17.48;;;13.32;;
78916;SDS011;68315;48.608;11.436;2023-10-19T01:17:48;19.67;;;14.35;;
78916;SDS011;68315;48.608;11.436;2023-10-19T01:20:19;18.83;;;14.93;;
78916;SDS011;68315;48.608;11.436;2023-10-19T01:22:59;17.17;;;13.65;;
78916;SDS011;68315;48.608;11.436;2023-10-19T01:28:09;18.05;;;14.48;;
78916;SDS011;68315;48.608;11.436;2023-10-19T01:30:36;18.73;;;14.73;;
78916;SDS011;68315;48.608;11.436;2023-10-19T01:33:02;20.55;;;16.33;;
78916;SDS011;68315;48.608;11.436;2023-10-19T01:35:29;20.23;;;15.20;;
78916;SDS011;68315;48.608;11.436;2023-10-19T01:38:14;21.20;;;17.05;;
78916;SDS011;68315;48.608;11.436;2023-10-19T01:40:40;21.65;;;15.90;;
78916;SDS011;68315;48.608;11.436;2023-10-19T01:43:11;17.35;;;13.93;;
78916;SDS011;68315;48.608;11.436;2023-10-19T01:45:47;19.38;;;14.80;;
78916;SDS011;68315;48.608;11.436;2023-10-19T01:48:12;18.45;;;13.75;;
78916;SDS011;68315;48.608;11.436;2023-10-19T01:50:38;18.00;;;14.45;;
78916;SDS011;68315;48.608;11.436;2023-10-19T01:53:06;20.27;;;15.43;;
78916;SDS011;68315;48.608;11.436;2023-10-19T01:55:41;20.35;;;15.30;;
78916;SDS011;68315;48.608;11.436;2023-10-19T01:58:08;20.73;;;15.68;;
78916;SDS011;68315;48.608;11.436;2023-10-19T02:00:34;23.38;;;16.50;;
78916;SDS011;68315;48.608;11.436;2023-10-19T02:03:02;19.77;;;15.48;;
78916;SDS011;68315;48.608;11.436;2023-10-19T02:05:32;19.38;;;15.73;;
78916;SDS011;68315;48.608;11.436;2023-10-19T02:08:04;16.10;;;12.90;;
78916;SDS011;68315;48.608;11.436;2023-10-19T02:10:32;17.80;;;14.10;;
78916;SDS011;68315;48.608;11.436;2023-10-19T02:12:58;16.50;;;12.38;;
78916;SDS011;68315;48.608;11.436;2023-10-19T02:15:23;14.13;;;11.48;;
78916;SDS011;68315;48.608;11.436;2023-10-19T02:17:49;15.98;;;12.25;;
78916;SDS011;68315;48.608;11.436;2023-10-19T02:20:14;24.55;;;18.75;;
78916;SDS011;68315;48.608;11.436;2023-10-19T02:22:42;21.00;;;16.67;;
78916;SDS011;68315;48.608;11.436;2023-10-19T02:25:08;22.10;;;16.52;;
78916;SDS011;68315;48.608;11.436;2023-10-19T02:27:35;20.67;;;15.98;;
78916;SDS011;68315;48.608;11.436;2023-10-19T02:30:00;20.17;;;15.60;;
78916;SDS011;68315;48.608;11.436;2023-10-19T02:32:26;21.52;;;15.60;;
78916;SDS011;68315;48.608;11.436;2023-10-19T02:34:51;20.45;;;15.18;;
78916;SDS011;68315;48.608;11.436;2023-10-19T02:37:17;20.60;;;15.45;;
78916;SDS011;68315;48.608;11.436;2023-10-19T02:39:42;19.63;;;14.55;;
78916;SDS011;68315;48.608;11.436;2023-10-19T02:42:08;17.85;;;14.05;;
78916;SDS011;68315;48.608;11.436;2023-10-19T02:44:33;18.60;;;14.43;;
78916;SDS011;68315;48.608;11.436;2023-10-19T02:47:03;18.63;;;14.57;;
78916;SDS011;68315;48.608;11.436;2023-10-19T02:49:33;22.77;;;16.67;;
78916;SDS011;68315;48.608;11.436;2023-10-19T02:52:04;21.08;;;15.50;;
78916;SDS011;68315;48.608;11.436;2023-10-19T02:54:29;24.70;;;18.38;;
78916;SDS011;68315;48.608;11.436;2023-10-19T02:56:58;19.95;;;14.90;;
78916;SDS011;68315;48.608;11.436;2023-10-19T02:59:24;19.77;;;15.60;;
78916;SDS011;68315;48.608;11.436;2023-10-19T03:01:59;23.17;;;16.45;;
78916;SDS011;68315;48.608;11.436;2023-10-19T03:04:38;23.15;;;17.10;;
78916;SDS011;68315;48.608;11.436;2023-10-19T03:07:04;21.98;;;16.08;;
78916;SDS011;68315;48.608;11.436;2023-10-19T03:09:30;22.05;;;15.35;;
78916;SDS011;68315;48.608;11.436;2023-10-19T03:11:57;22.23;;;17.52;;
78916;SDS011;68315;48.608;11.436;2023-10-19T03:14:28;22.27;;;16.67;;
78916;SDS011;68315;48.608;11.436;2023-10-19T03:16:57;20.00;;;15.02;;
78916;SDS011;68315;48.608;11.436;2023-10-19T03:19:23;25.85;;;18.75;;
78916;SDS011;68315;48.608;11.436;2023-10-19T03:21:51;25.17;;;17.98;;
78916;SDS011;68315;48.608;11.436;2023-10-19T03:24:18;20.98;;;15.43;;
78916;SDS011;68315;48.608;11.436;2023-10-19T03:27:03;27.70;;;19.88;;
78916;SDS011;68315;48.608;11.436;2023-10-19T03:32:04;22.70;;;16.75;;
78916;SDS011;68315;48.608;11.436;2023-10-19T03:34:34;22.42;;;17.35;;
78916;SDS011;68315;48.608;11.436;2023-10-19T03:37:02;20.02;;;15.23;;
78916;SDS011;68315;48.608;11.436;2023-10-19T03:39:30;19.77;;;14.85;;
78916;SDS011;68315;48.608;11.436;2023-10-19T03:41:58;22.38;;;17.15;;
78916;SDS011;68315;48.608;11.436;2023-10-19T03:44:24;24.10;;;18.58;;
78916;SDS011;68315;48.608;11.436;2023-10-19T03:46:56;23.35;;;17.67;;
78916;SDS011;68315;48.608;11.436;2023-10-19T03:49:29;22.83;;;17.85;;
78916;SDS011;68315;48.608;11.436;2023-10-19T03:52:01;21.60;;;16.08;;
78916;SDS011;68315;48.608;11.436;2023-10-19T03:54:36;20.85;;;16.65;;
78916;SDS011;68315;48.608;11.436;2023-10-19T03:57:05;22.77;;;17.10;;
78916;SDS011;68315;48.608;11.436;2023-10-19T03:59:36;22.23;;;16.27;;
78916;SDS011;68315;48.608;11.436;2023-10-19T04:02:02;26.95;;;19.23;;
78916;SDS011;68315;48.608;11.436;2023-10-19T04:04:34;19.33;;;16.67;;
78916;SDS011;68315;48.608;11.436;2023-10-19T04:07:00;23.02;;;16.65;;
78916;SDS011;68315;48.608;11.436;2023-10-19T04:09:34;46.00;;;31.80;;
78916;SDS011;68315;48.608;11.436;2023-10-19T04:11:59;36.80;;;26.58;;
78916;SDS011;68315;48.608;11.436;2023-10-19T04:14:27;35.30;;;26.00;;
78916;SDS011;68315;48.608;11.436;2023-10-19T04:16:52;28.58;;;20.42;;
78916;SDS011;68315;48.608;11.436;2023-10-19T04:19:17;26.25;;;19.77;;
78916;SDS011;68315;48.608;11.436;2023-10-19T04:21:43;23.08;;;17.17;;
78916;SDS011;68315;48.608;11.436;2023-10-19T04:24:15;21.40;;;16.58;;
78916;SDS011;68315;48.608;11.436;2023-10-19T04:26:43;20.15;;;15.40;;
78916;SDS011;68315;48.608;11.436;2023-10-19T04:29:09;24.08;;;16.80;;
78916;SDS011;68315;48.608;11.436;2023-10-19T04:31:37;26.80;;;20.73;;
78916;SDS011;68315;48.608;11.436;2023-10-19T04:34:17;24.63;;;18.58;;
78916;SDS011;68315;48.608;11.436;2023-10-19T04:36:45;21.45;;;17.13;;
78916;SDS011;68315;48.608;11.436;2023-10-19T04:39:11;20.73;;;15.50;;
78916;SDS011;68315;48.608;11.436;2023-10-19T04:41:39;25.45;;;18.02;;
78916;SDS011;68315;48.608;11.436;2023-10-19T04:44:04;23.73;;;18.27;;
78916;SDS011;68315;48.608;11.436;2023-10-19T04:46:33;27.58;;;21.25;;
78916;SDS011;68315;48.608;11.436;2023-10-19T04:48:58;22.95;;;17.63;;
78916;SDS011;68315;48.608;11.436;2023-10-19T04:51:24;20.50;;;15.75;;
78916;SDS011;68315;48.608;11.436;2023-10-19T04:53:49;24.67;;;17.55;;
78916;SDS011;68315;48.608;11.436;2023-10-19T04:56:15;21.90;;;15.50;;
78916;SDS011;68315;48.608;11.436;2023-10-19T04:58:40;18.05;;;15.05;;
78916;SDS011;68315;48.608;11.436;2023-10-19T05:01:05;20.23;;;14.98;;
78916;SDS011;68315;48.608;11.436;2023-10-19T05:03:31;19.73;;;15.23;;
78916;SDS011;68315;48.608;11.436;2023-10-19T05:05:57;19.50;;;15.70;;
78916;SDS011;68315;48.608;11.436;2023-10-19T05:08:23;20.17;;;15.45;;
78916;SDS011;68315;48.608;11.436;2023-10-19T05:10:51;20.38;;;15.38;;
78916;SDS011;68315;48.608;11.436;2023-10-19T05:13:18;19.65;;;14.63;;
78916;SDS011;68315;48.608;11.436;2023-10-19T05:15:44;18.88;;;14.98;;
78916;SDS011;68315;48.608;11.436;2023-10-19T05:18:09;18.17;;;14.40;;
78916;SDS011;68315;48.608;11.436;2023-10-19T05:20:35;18.05;;;14.43;;
78916;SDS011;68315;48.608;11.436;2023-10-19T05:23:05;17.00;;;13.40;;
78916;SDS011;68315;48.608;11.436;2023-10-19T05:25:34;19.60;;;15.48;;
78916;SDS011;68315;48.608;11.436;2023-10-19T05:28:01;20.10;;;15.70;;
78916;SDS011;68315;48.608;11.436;2023-10-19T05:30:28;19.17;;;15.70;;
78916;SDS011;68315;48.608;11.436;2023-10-19T05:32:55;21.45;;;16.23;;
78916;SDS011;68315;48.608;11.436;2023-10-19T05:35:20;22.40;;;16.42;;
78916;SDS011;68315;48.608;11.436;2023-10-19T05:37:49;21.88;;;15.73;;
78916;SDS011;68315;48.608;11.436;2023-10-19T05:40:15;22.50;;;16.00;;
78916;SDS011;68315;48.608;11.436;2023-10-19T05:42:41;20.55;;;16.60;;
78916;SDS011;68315;48.608;11.436;2023-10-19T05:45:06;18.38;;;14.38;;
78916;SDS011;68315;48.608;11.436;2023-10-19T05:47:32;16.25;;;12.63;;
78916;SDS011;68315;48.608;11.436;2023-10-19T05:49:57;14.70;;;11.85;;
78916;SDS011;68315;48.608;11.436;2023-10-19T05:52:22;19.75;;;15.65;;
78916;SDS011;68315;48.608;11.436;2023-10-19T05:54:47;21.60;;;16.23;;
78916;SDS011;68315;48.608;11.436;2023-10-19T05:57:14;22.70;;;17.25;;
78916;SDS011;68315;48.608;11.436;2023-10-19T05:59:39;20.90;;;15.55;;
78916;SDS011;68315;48.608;11.436;2023-10-19T06:02:05;19.70;;;15.25;;
78916;SDS011;68315;48.608;11.436;2023-10-19T06:04:32;19.58;;;15.18;;
78916;SDS011;68315;48.608;11.436;2023-10-19T06:06:57;17.70;;;14.05;;
78916;SDS011;68315;48.608;11.436;2023-10-19T06:09:23;18.23;;;14.65;;
78916;SDS011;68315;48.608;11.436;2023-10-19T06:11:54;19.02;;;14.70;;
78916;SDS011;68315;48.608;11.436;2023-10-19T06:14:20;19.73;;;14.93;;
78916;SDS011;68315;48.608;11.436;2023-10-19T06:16:45;19.38;;;15.13;;
78916;SDS011;68315;48.608;11.436;2023-10-19T06:19:10;19.27;;;15.40;;
78916;SDS011;68315;48.608;11.436;2023-10-19T06:21:35;21.65;;;15.07;;
78916;SDS011;68315;48.608;11.436;2023-10-19T06:24:01;21.05;;;16.02;;
78916;SDS011;68315;48.608;11.436;2023-10-19T06:26:27;18.27;;;14.52;;
78916;SDS011;68315;48.608;11.436;2023-10-19T06:28:53;20.42;;;15.18;;
78916;SDS011;68315;48.608;11.436;2023-10-19T06:31:25;21.80;;;16.45;;
78916;SDS011;68315;48.608;11.436;2023-10-19T06:33:51;19.15;;;15.43;;
78916;SDS011;68315;48.608;11.436;2023-10-19T06:36:17;27.23;;;19.90;;
78916;SDS011;68315;48.608;11.436;2023-10-19T06:38:44;23.95;;;17.80;;
78916;SDS011;68315;48.608;11.436;2023-10-19T06:41:10;26.05;;;19.70;;
78916;SDS011;68315;48.608;11.436;2023-10-19T06:43:39;33.08;;;24.15;;
78916;SDS011;68315;48.608;11.436;2023-10-19T06:46:04;22.05;;;16.55;;
78916;SDS011;68315;48.608;11.436;2023-10-19T06:48:30;23.00;;;16.63;;
78916;SDS011;68315;48.608;11.436;2023-10-19T06:50:56;22.95;;;16.83;;
78916;SDS011;68315;48.608;11.436;2023-10-19T06:53:22;22.88;;;18.15;;
78916;SDS011;68315;48.608;11.436;2023-10-19T06:55:47;23.52;;;18.38;;
78916;SDS011;68315;48.608;11.436;2023-10-19T06:58:13;24.05;;;18.13;;
78916;SDS011;68315;48.608;11.436;2023-10-19T07:00:39;23.48;;;17.35;;
78916;SDS011;68315;48.608;11.436;2023-10-19T07:03:07;25.27;;;19.00;;
78916;SDS011;68315;48.608;11.436;2023-10-19T07:05:33;26.42;;;19.45;;
78916;SDS011;68315;48.608;11.436;2023-10-19T07:07:59;23.80;;;17.83;;
78916;SDS011;68315;48.608;11.436;2023-10-19T07:10:26;20.30;;;16.05;;
78916;SDS011;68315;48.608;11.436;2023-10-19T07:12:53;21.55;;;17.42;;
78916;SDS011;68315;48.608;11.436;2023-10-19T07:15:20;25.70;;;19.13;;
78916;SDS011;68315;48.608;11.436;2023-10-19T07:17:47;23.33;;;17.55;;
78916;SDS011;68315;48.608;11.436;2023-10-19T07:20:18;22.08;;;16.92;;
78916;SDS011;68315;48.608;11.436;2023-10-19T07:23:04;19.05;;;14.65;;
78916;SDS011;68315;48.608;11.436;2023-10-19T07:25:47;24.25;;;18.27;;
78916;SDS011;68315;48.608;11.436;2023-10-19T07:28:17;23.88;;;18.50;;
78916;SDS011;68315;48.608;11.436;2023-10-19T07:30:44;26.92;;;19.70;;
78916;SDS011;68315;48.608;11.436;2023-10-19T07:33:11;25.35;;;19.40;;
78916;SDS011;68315;48.608;11.436;2023-10-19T07:35:43;26.10;;;19.60;;
78916;SDS011;68315;48.608;11.436;2023-10-19T07:38:12;24.88;;;19.85;;
78916;SDS011;68315;48.608;11.436;2023-10-19T07:40:38;22.60;;;17.20;;
78916;SDS011;68315;48.608;11.436;2023-10-19T07:43:04;23.73;;;18.45;;
78916;SDS011;68315;48.608;11.436;2023-10-19T07:45:30;23.13;;;17.65;;
78916;SDS011;68315;48.608;11.436;2023-10-19T07:47:59;22.13;;;17.58;;
78916;SDS011;68315;48.608;11.436;2023-10-19T07:50:31;21.15;;;17.50;;
78916;SDS011;68315;48.608;11.436;2023-10-19T07:53:00;22.48;;;17.75;;
78916;SDS011;68315;48.608;11.436;2023-10-19T07:55:25;21.63;;;17.08;;
78916;SDS011;68315;48.608;11.436;2023-10-19T07:57:51;25.08;;;18.48;;
78916;SDS011;68315;48.608;11.436;2023-10-19T08:00:18;22.88;;;18.13;;
78916;SDS011;68315;48.608;11.436;2023-10-19T08:02:44;28.48;;;22.08;;
78916;SDS011;68315;48.608;11.436;2023-10-19T08:05:13;23.85;;;19.50;;
78916;SDS011;68315;48.608;11.436;2023-10-19T08:07:39;20.17;;;16.48;;
78916;SDS011;68315;48.608;11.436;2023-10-19T08:10:07;19.08;;;15.60;;
78916;SDS011;68315;48.608;11.436;2023-10-19T08:12:35;21.63;;;16.90;;
78916;SDS011;68315;48.608;11.436;2023-10-19T08:15:01;17.23;;;13.75;;
78916;SDS011;68315;48.608;11.436;2023-10-19T08:17:27;18.42;;;15.25;;
78916;SDS011;68315;48.608;11.436;2023-10-19T08:19:52;15.57;;;12.73;;
78916;SDS011;68315;48.608;11.436;2023-10-19T08:22:17;17.42;;;14.98;;
78916;SDS011;68315;48.608;11.436;2023-10-19T08:24:42;16.85;;;13.00;;
78916;SDS011;68315;48.608;11.436;2023-10-19T08:27:11;16.45;;;12.60;;
78916;SDS011;68315;48.608;11.436;2023-10-19T08:29:38;14.20;;;12.70;;
78916;SDS011;68315;48.608;11.436;2023-10-19T08:32:03;18.88;;;13.30;;
78916;SDS011;68315;48.608;11.436;2023-10-19T08:34:29;16.90;;;14.27;;
78916;SDS011;68315;48.608;11.436;2023-10-19T08:36:55;19.67;;;14.35;;
78916;SDS011;68315;48.608;11.436;2023-10-19T08:39:21;22.95;;;16.08;;
78916;SDS011;68315;48.608;11.436;2023-10-19T08:41:49;17.58;;;14.15;;
78916;SDS011;68315;48.608;11.436;2023-10-19T08:44:18;18.90;;;15.35;;
78916;SDS011;68315;48.608;11.436;2023-10-19T08:46:44;17.35;;;14.50;;
78916;SDS011;68315;48.608;11.436;2023-10-19T08:49:14;15.25;;;13.23;;
78916;SDS011;68315;48.608;11.436;2023-10-19T08:51:43;14.98;;;12.15;;
78916;SDS011;68315;48.608;11.436;2023-10-19T08:54:11;19.05;;;15.77;;
78916;SDS011;68315;48.608;11.436;2023-10-19T08:56:37;20.55;;;15.57;;
78916;SDS011;68315;48.608;11.436;2023-10-19T08:59:03;16.30;;;13.90;;
78916;SDS011;68315;48.608;11.436;2023-10-19T09:01:29;15.85;;;13.20;;
78916;SDS011;68315;48.608;11.436;2023-10-19T09:03:57;15.13;;;11.70;;
78916;SDS011;68315;48.608;11.436;2023-10-19T09:06:23;15.48;;;12.55;;
78916;SDS011;68315;48.608;11.436;2023-10-19T09:08:49;15.13;;;12.10;;
78916;SDS011;68315;48.608;11.436;2023-10-19T09:11:14;17.33;;;14.55;;
78916;SDS011;68315;48.608;11.436;2023-10-19T09:13:47;13.90;;;12.43;;
78916;SDS011;68315;48.608;11.436;2023-10-19T09:16:17;14.90;;;12.65;;
78916;SDS011;68315;48.608;11.436;2023-10-19T09:18:44;15.18;;;12.68;;
78916;SDS011;68315;48.608;11.436;2023-10-19T09:21:10;16.00;;;12.27;;
78916;SDS011;68315;48.608;11.436;2023-10-19T09:23:52;14.07;;;11.70;;
78916;SDS011;68315;48.608;11.436;2023-10-19T09:26:21;14.07;;;11.70;;
78916;SDS011;68315;48.608;11.436;2023-10-19T09:28:48;14.57;;;12.13;;
78916;SDS011;68315;48.608;11.436;2023-10-19T09:31:14;14.70;;;12.63;;
78916;SDS011;68315;48.608;11.436;2023-10-19T09:33:41;14.50;;;12.30;;
78916;SDS011;68315;48.608;11.436;2023-10-19T09:36:09;14.88;;;11.93;;
78916;SDS011;68315;48.608;11.436;2023-10-19T09:38:39;14.18;;;11.73;;
78916;SDS011;68315;48.608;11.436;2023-10-19T09:41:08;13.30;;;11.77;;
78916;SDS011;68315;48.608;11.436;2023-10-19T09:43:38;16.27;;;12.38;;
78916;SDS011;68315;48.608;11.436;2023-10-19T09:46:09;15.27;;;13.13;;
78916;SDS011;68315;48.608;11.436;2023-10-19T09:48:39;14.75;;;13.07;;
78916;SDS011;68315;48.608;11.436;2023-10-19T09:51:11;15.40;;;12.60;;
78916;SDS011;68315;48.608;11.436;2023-10-19T09:53:38;14.63;;;12.38;;
78916;SDS011;68315;48.608;11.436;2023-10-19T09:56:05;16.77;;;14.15;;
78916;SDS011;68315;48.608;11.436;2023-10-19T09:58:36;18.90;;;15.68;;
78916;SDS011;68315;48.608;11.436;2023-10-19T10:01:08;17.73;;;15.18;;
78916;SDS011;68315;48.608;11.436;2023-10-19T10:03:41;18.27;;;15.98;;
78916;SDS011;68315;48.608;11.436;2023-10-19T10:06:07;17.80;;;14.77;;
78916;SDS011;68315;48.608;11.436;2023-10-19T10:08:35;17.15;;;14.32;;
78916;SDS011;68315;48.608;11.436;2023-10-19T10:11:12;19.52;;;15.05;;
78916;SDS011;68315;48.608;11.436;2023-10-19T10:13:39;13.88;;;12.40;;
78916;SDS011;68315;48.608;11.436;2023-10-19T10:16:06;17.13;;;13.90;;
78916;SDS011;68315;48.608;11.436;2023-10-19T10:18:31;16.95;;;14.75;;
78916;SDS011;68315;48.608;11.436;2023-10-19T10:21:13;16.00;;;14.23;;
78916;SDS011;68315;48.608;11.436;2023-10-19T10:26:12;15.80;;;13.75;;
78916;SDS011;68315;48.608;11.436;2023-10-19T10:28:39;19.55;;;15.27;;
78916;SDS011;68315;48.608;11.436;2023-10-19T10:33:37;24.45;;;19.25;;
78916;SDS011;68315;48.608;11.436;2023-10-19T10:36:07;18.30;;;15.90;;
78916;SDS011;68315;48.608;11.436;2023-10-19T10:38:33;22.55;;;18.38;;
78916;SDS011;68315;48.608;11.436;2023-10-19T10:41:01;22.48;;;17.88;;
78916;SDS011;68315;48.608;11.436;2023-10-19T10:43:26;22.02;;;18.55;;
78916;SDS011;68315;48.608;11.436;2023-10-19T10:45:52;21.75;;;16.95;;
78916;SDS011;68315;48.608;11.436;2023-10-19T10:48:27;18.58;;;15.38;;
78916;SDS011;68315;48.608;11.436;2023-10-19T10:50:52;19.98;;;16.83;;
78916;SDS011;68315;48.608;11.436;2023-10-19T10:53:18;19.50;;;17.00;;
78916;SDS011;68315;48.608;11.436;2023-10-19T10:55:44;25.25;;;20.98;;
78916;SDS011;68315;48.608;11.436;2023-10-19T10:58:14;25.45;;;18.48;;
78916;SDS011;68315;48.608;11.436;2023-10-19T11:00:43;24.77;;;19.83;;
78916;SDS011;68315;48.608;11.436;2023-10-19T11:03:10;18.83;;;16.70;;
78916;SDS011;68315;48.608;11.436;2023-10-19T11:05:36;19.60;;;16.38;;
78916;SDS011;68315;48.608;11.436;2023-10-19T11:10:32;19.08;;;15.20;;
78916;SDS011;68315;48.608;11.436;2023-10-19T11:13:04;20.60;;;16.40;;
78916;SDS011;68315;48.608;11.436;2023-10-19T11:15:47;20.15;;;15.68;;
78916;SDS011;68315;48.608;11.436;2023-10-19T11:21:12;18.40;;;15.38;;
78916;SDS011;68315;48.608;11.436;2023-10-19T11:23:43;18.45;;;14.90;;
78916;SDS011;68315;48.608;11.436;2023-10-19T11:26:10;19.08;;;15.93;;
78916;SDS011;68315;48.608;11.436;2023-10-19T11:28:37;19.60;;;16.58;;
78916;SDS011;68315;48.608;11.436;2023-10-19T11:31:20;18.33;;;15.63;;
78916;SDS011;68315;48.608;11.436;2023-10-19T11:33:52;16.40;;;14.07;;
78916;SDS011;68315;48.608;11.436;2023-10-19T11:36:20;16.73;;;13.82;;
78916;SDS011;68315;48.608;11.436;2023-10-19T11:38:47;16.08;;;13.50;;
78916;SDS011;68315;48.608;11.436;2023-10-19T11:41:14;18.25;;;14.45;;
78916;SDS011;68315;48.608;11.436;2023-10-19T11:43:41;18.48;;;16.20;;
78916;SDS011;68315;48.608;11.436;2023-10-19T11:46:08;22.65;;;18.15;;
78916;SDS011;68315;48.608;11.436;2023-10-19T11:48:34;20.10;;;17.75;;
78916;SDS011;68315;48.608;11.436;2023-10-19T11:51:01;17.00;;;14.77;;
78916;SDS011;68315;48.608;11.436;2023-10-19T11:53:29;18.08;;;14.75;;
78916;SDS011;68315;48.608;11.436;2023-10-19T11:56:11;17.38;;;14.07;;
78916;SDS011;68315;48.608;11.436;2023-10-19T11:58:38;15.30;;;13.68;;
78916;SDS011;68315;48.608;11.436;2023-10-19T12:01:05;15.07;;;13.48;;
78916;SDS011;68315;48.608;11.436;2023-10-19T12:03:33;13.27;;;11.93;;
78916;SDS011;68315;48.608;11.436;2023-10-19T12:06:02;12.65;;;10.75;;
78916;SDS011;68315;48.608;11.436;2023-10-19T12:08:31;11.60;;;10.38;;
78916;SDS011;68315;48.608;11.436;2023-10-19T12:10:56;12.15;;;10.68;;
78916;SDS011;68315;48.608;11.436;2023-10-19T12:13:22;12.60;;;11.23;;
78916;SDS011;68315;48.608;11.436;2023-10-19T12:15:47;11.57;;;10.35;;
78916;SDS011;68315;48.608;11.436;2023-10-19T12:18:22;12.40;;;10.38;;
78916;SDS011;68315;48.608;11.436;2023-10-19T12:20:48;12.93;;;11.05;;
78916;SDS011;68315;48.608;11.436;2023-10-19T12:23:13;13.98;;;12.10;;
78916;SDS011;68315;48.608;11.436;2023-10-19T12:25:40;12.10;;;10.00;;
78916;SDS011;68315;48.608;11.436;2023-10-19T12:28:07;11.68;;;9.90;;
78916;SDS011;68315;48.608;11.436;2023-10-19T12:30:32;12.70;;;10.63;;
78916;SDS011;68315;48.608;11.436;2023-10-19T12:33:02;11.52;;;10.32;;
78916;SDS011;68315;48.608;11.436;2023-10-19T12:35:37;15.70;;;12.52;;
78916;SDS011;68315;48.608;11.436;2023-10-19T12:38:16;19.17;;;15.35;;
78916;SDS011;68315;48.608;11.436;2023-10-19T12:40:43;15.88;;;14.18;;
78916;SDS011;68315;48.608;11.436;2023-10-19T12:43:09;15.82;;;14.13;;
78916;SDS011;68315;48.608;11.436;2023-10-19T12:45:35;16.15;;;13.32;;
78916;SDS011;68315;48.608;11.436;2023-10-19T12:48:02;14.73;;;13.05;;
78916;SDS011;68315;48.608;11.436;2023-10-19T12:50:29;15.63;;;13.77;;
78916;SDS011;68315;48.608;11.436;2023-10-19T12:52:55;19.05;;;16.23;;
78916;SDS011;68315;48.608;11.436;2023-10-19T12:55:21;16.85;;;14.73;;
78916;SDS011;68315;48.608;11.436;2023-10-19T12:57:46;18.92;;;14.82;;
78916;SDS011;68315;48.608;11.436;2023-10-19T13:00:11;22.20;;;17.83;;
78916;SDS011;68315;48.608;11.436;2023-10-19T13:02:51;22.65;;;17.75;;
78916;SDS011;68315;48.608;11.436;2023-10-19T13:05:16;18.60;;;16.25;;
78916;SDS011;68315;48.608;11.436;2023-10-19T13:07:45;15.25;;;13.65;;
78916;SDS011;68315;48.608;11.436;2023-10-19T13:10:11;21.40;;;17.33;;
78916;SDS011;68315;48.608;11.436;2023-10-19T13:12:36;17.38;;;15.32;;
78916;SDS011;68315;48.608;11.436;2023-10-19T13:15:02;20.20;;;17.95;;
78916;SDS011;68315;48.608;11.436;2023-10-19T13:17:28;18.40;;;16.45;;
78916;SDS011;68315;48.608;11.436;2023-10-19T13:19:53;15.63;;;13.95;;
78916;SDS011;68315;48.608;11.436;2023-10-19T13:22:21;19.02;;;16.77;;
78916;SDS011;68315;48.608;11.436;2023-10-19T13:24:46;18.75;;;15.85;;
78916;SDS011;68315;48.608;11.436;2023-10-19T13:27:12;19.48;;;16.00;;
78916;SDS011;68315;48.608;11.436;2023-10-19T13:29:37;22.27;;;18.88;;
78916;SDS011;68315;48.608;11.436;2023-10-19T13:32:06;21.38;;;19.00;;
78916;SDS011;68315;48.608;11.436;2023-10-19T13:34:31;19.75;;;17.08;;
78916;SDS011;68315;48.608;11.436;2023-10-19T13:36:57;17.17;;;14.82;;
78916;SDS011;68315;48.608;11.436;2023-10-19T13:39:22;16.60;;;14.55;;
78916;SDS011;68315;48.608;11.436;2023-10-19T13:41:50;14.85;;;12.70;;
78916;SDS011;68315;48.608;11.436;2023-10-19T13:44:17;14.60;;;12.25;;
78916;SDS011;68315;48.608;11.436;2023-10-19T13:46:45;18.95;;;15.65;;
78916;SDS011;68315;48.608;11.436;2023-10-19T13:49:10;14.70;;;13.20;;
78916;SDS011;68315;48.608;11.436;2023-10-19T13:51:36;17.98;;;14.30;;
78916;SDS011;68315;48.608;11.436;2023-10-19T13:54:01;13.10;;;11.25;;
78916;SDS011;68315;48.608;11.436;2023-10-19T13:56:27;16.40;;;13.35;;
78916;SDS011;68315;48.608;11.436;2023-10-19T13:58:52;17.63;;;14.48;;
78916;SDS011;68315;48.608;11.436;2023-10-19T14:01:17;16.20;;;14.50;;
78916;SDS011;68315;48.608;11.436;2023-10-19T14:03:43;17.42;;;15.25;;
78916;SDS011;68315;48.608;11.436;2023-10-19T14:06:12;14.63;;;13.10;;
78916;SDS011;68315;48.608;11.436;2023-10-19T14:08:38;19.70;;;15.50;;
78916;SDS011;68315;48.608;11.436;2023-10-19T14:11:03;16.88;;;14.77;;
78916;SDS011;68315;48.608;11.436;2023-10-19T14:13:29;15.35;;;12.77;;
78916;SDS011;68315;48.608;11.436;2023-10-19T14:15:54;16.05;;;13.52;;
78916;SDS011;68315;48.608;11.436;2023-10-19T14:18:19;18.45;;;15.45;;
78916;SDS011;68315;48.608;11.436;2023-10-19T14:20:45;17.60;;;14.95;;
78916;SDS011;68315;48.608;11.436;2023-10-19T14:23:10;16.50;;;14.68;;
78916;SDS011;68315;48.608;11.436;2023-10-19T14:25:36;20.00;;;15.80;;
78916;SDS011;68315;48.608;11.436;2023-10-19T14:28:07;23.75;;;19.55;;
78916;SDS011;68315;48.608;11.436;2023-10-19T14:30:34;24.13;;;21.63;;
78916;SDS011;68315;48.608;11.436;2023-10-19T14:33:00;18.48;;;15.90;;
78916;SDS011;68315;48.608;11.436;2023-10-19T14:35:25;16.00;;;14.27;;